Terminal Aerodrome Forecast
Issued by NWS North Platte, NE

Home | Current Version | Previous Version | Text Only | Print | Product List | Glossary Off
Versions: 1 2 3 4 5 6 7 8 9 10 11 12 13 14 15 16 17 18 19

000
FTUS43 KLBF 261700
TAFVTN
TAF
KVTN 261720Z 2618/2718 36011G17KT P6SM BKN013 OVC025
     FM262200 34009KT P6SM SCT030 BKN150
     FM270300 11006KT P6SM SCT015 BKN030
     FM270900 14008KT P6SM OVC010=

USA.gov is the U.S. government's official web portal to all federal, state and local government web resources and services.